METAR AND TAF INFORMATION
METAR FOR SVSA
ADDS - METARS form results

(0930 UTC 12 November 2019)
Data provider http://aviationweather.gov/metar/data/
 
Forecast for: SVSA (SAN ANTONIO TACH, VE)
Text: TAF SVSA 120400Z 1206/1306 15006KT 9999 SCT020 TX32/19Z TN21/08Z
Forecast period: 0600 UTC 12 November 2019 to 0600 UTC 13 November 2019
Forecast type: FROM: standard forecast or significant change
Winds: from the SSE (150 degrees) at 7 MPH (6 knots; 3.1 m/s)
Visibility: 6 or more miles 10+ km)
Ceiling: at least 12,000 feet AGL
Clouds: scattered clouds at 2000 feet AGL
Weather: no significant weather forecast for this period
Text: BECMG 1206/1210 14005KT 9000 -DZ BKN016
Forecast period: 0600 UTC 12 November 2019 to 0600 UTC 13 November 2019
Forecast type: BECOMING: Conditions expected to become as follows by 1000 UTC 12 November 2019
Winds: from the SE (140 degrees) at 6 MPH (5 knots; 2.6 m/s)
Visibility: 6 miles (9 km)
Ceiling: 1600 feet AGL
Clouds: broken clouds at 1600 feet AGL
Weather: -DZ  (light drizzle)

 AIRPORT MAP

 RUNWAY INFORMATION
Runway 17 Runway length 6135 ft Runway width 131 ft
Runway elevation 0 ft Runway displaced threshold 0 ft Runway heading 166
Runway 35 Runway length 6135 ft Runway width 131 ft
Runway elevation 0 ft Runway displaced threshold 0 ft Runway heading 346

 AIRPORT FREQUENCIES
Type GND Name GND Frequency 121.9 MHZ
Type TWR Name TWR Frequency 118.5 MHZ

 AIRPORT NEAR NAVIGATION AIDS